sensor_id;sensor_type;location;lat;lon;timestamp;P1;durP1;ratioP1;P2;durP2;ratioP2
4885;SDS011;2457;51.788;6.136;2022-10-16T00:00:42;6.57;;;2.43;;
4885;SDS011;2457;51.788;6.136;2022-10-16T00:03:10;5.93;;;2.30;;
4885;SDS011;2457;51.788;6.136;2022-10-16T00:05:41;5.77;;;2.23;;
4885;SDS011;2457;51.788;6.136;2022-10-16T00:08:09;5.97;;;2.20;;
4885;SDS011;2457;51.788;6.136;2022-10-16T00:10:37;6.97;;;2.70;;
4885;SDS011;2457;51.788;6.136;2022-10-16T00:13:05;5.90;;;2.53;;
4885;SDS011;2457;51.788;6.136;2022-10-16T00:15:33;5.90;;;2.00;;
4885;SDS011;2457;51.788;6.136;2022-10-16T00:18:03;6.00;;;1.80;;
4885;SDS011;2457;51.788;6.136;2022-10-16T00:20:33;10.73;;;2.30;;
4885;SDS011;2457;51.788;6.136;2022-10-16T00:23:00;7.30;;;2.40;;
4885;SDS011;2457;51.788;6.136;2022-10-16T00:25:27;5.90;;;2.10;;
4885;SDS011;2457;51.788;6.136;2022-10-16T00:27:54;7.40;;;2.37;;
4885;SDS011;2457;51.788;6.136;2022-10-16T00:30:22;7.37;;;2.57;;
4885;SDS011;2457;51.788;6.136;2022-10-16T00:32:49;4.37;;;2.40;;
4885;SDS011;2457;51.788;6.136;2022-10-16T00:35:16;7.27;;;2.00;;
4885;SDS011;2457;51.788;6.136;2022-10-16T00:37:44;6.10;;;2.30;;
4885;SDS011;2457;51.788;6.136;2022-10-16T00:40:11;6.80;;;2.30;;
4885;SDS011;2457;51.788;6.136;2022-10-16T00:42:38;5.47;;;2.13;;
4885;SDS011;2457;51.788;6.136;2022-10-16T00:45:08;5.23;;;2.27;;
4885;SDS011;2457;51.788;6.136;2022-10-16T00:47:39;6.80;;;2.57;;
4885;SDS011;2457;51.788;6.136;2022-10-16T00:52:39;4.43;;;1.90;;
4885;SDS011;2457;51.788;6.136;2022-10-16T00:55:07;5.90;;;2.47;;
4885;SDS011;2457;51.788;6.136;2022-10-16T00:57:36;9.20;;;2.17;;
4885;SDS011;2457;51.788;6.136;2022-10-16T01:00:05;5.53;;;2.37;;
4885;SDS011;2457;51.788;6.136;2022-10-16T01:02:32;4.40;;;1.90;;
4885;SDS011;2457;51.788;6.136;2022-10-16T01:04:59;4.90;;;2.23;;
4885;SDS011;2457;51.788;6.136;2022-10-16T01:07:30;5.47;;;2.27;;
4885;SDS011;2457;51.788;6.136;2022-10-16T01:12:33;10.80;;;2.20;;
4885;SDS011;2457;51.788;6.136;2022-10-16T01:15:05;7.00;;;2.47;;
4885;SDS011;2457;51.788;6.136;2022-10-16T01:17:45;5.93;;;2.23;;
4885;SDS011;2457;51.788;6.136;2022-10-16T01:20:35;4.70;;;2.10;;
4885;SDS011;2457;51.788;6.136;2022-10-16T01:22:48;5.80;;;2.07;;
4885;SDS011;2457;51.788;6.136;2022-10-16T01:25:16;4.70;;;1.90;;
4885;SDS011;2457;51.788;6.136;2022-10-16T01:27:41;5.40;;;2.20;;
4885;SDS011;2457;51.788;6.136;2022-10-16T01:30:10;6.37;;;2.20;;
4885;SDS011;2457;51.788;6.136;2022-10-16T01:32:41;4.53;;;1.83;;
4885;SDS011;2457;51.788;6.136;2022-10-16T01:35:20;5.23;;;1.80;;
4885;SDS011;2457;51.788;6.136;2022-10-16T01:37:53;4.33;;;1.80;;
4885;SDS011;2457;51.788;6.136;2022-10-16T01:40:16;7.73;;;1.90;;
4885;SDS011;2457;51.788;6.136;2022-10-16T01:42:46;4.53;;;1.90;;
4885;SDS011;2457;51.788;6.136;2022-10-16T01:45:14;5.17;;;2.27;;
4885;SDS011;2457;51.788;6.136;2022-10-16T01:47:44;7.77;;;2.27;;
4885;SDS011;2457;51.788;6.136;2022-10-16T01:50:12;4.60;;;1.70;;
4885;SDS011;2457;51.788;6.136;2022-10-16T01:52:41;4.37;;;1.90;;
4885;SDS011;2457;51.788;6.136;2022-10-16T01:55:09;4.20;;;1.80;;
4885;SDS011;2457;51.788;6.136;2022-10-16T01:57:38;4.77;;;1.90;;
4885;SDS011;2457;51.788;6.136;2022-10-16T02:00:10;5.10;;;2.03;;
4885;SDS011;2457;51.788;6.136;2022-10-16T02:02:38;4.57;;;1.90;;
4885;SDS011;2457;51.788;6.136;2022-10-16T02:05:12;5.50;;;1.93;;
4885;SDS011;2457;51.788;6.136;2022-10-16T02:07:39;5.33;;;1.70;;
4885;SDS011;2457;51.788;6.136;2022-10-16T02:10:08;9.50;;;2.00;;
4885;SDS011;2457;51.788;6.136;2022-10-16T02:12:36;4.93;;;1.63;;
4885;SDS011;2457;51.788;6.136;2022-10-16T02:15:06;5.07;;;2.10;;
4885;SDS011;2457;51.788;6.136;2022-10-16T02:17:33;5.10;;;1.97;;
4885;SDS011;2457;51.788;6.136;2022-10-16T02:20:01;5.83;;;1.53;;
4885;SDS011;2457;51.788;6.136;2022-10-16T02:22:38;5.20;;;1.70;;
4885;SDS011;2457;51.788;6.136;2022-10-16T02:27:33;3.70;;;1.33;;
4885;SDS011;2457;51.788;6.136;2022-10-16T02:30:08;5.70;;;2.00;;
4885;SDS011;2457;51.788;6.136;2022-10-16T02:32:34;4.90;;;2.10;;
4885;SDS011;2457;51.788;6.136;2022-10-16T02:35:03;8.70;;;1.80;;
4885;SDS011;2457;51.788;6.136;2022-10-16T02:37:31;4.63;;;1.67;;
4885;SDS011;2457;51.788;6.136;2022-10-16T02:39:59;5.63;;;1.83;;
4885;SDS011;2457;51.788;6.136;2022-10-16T02:42:28;4.37;;;1.53;;
4885;SDS011;2457;51.788;6.136;2022-10-16T02:44:56;5.20;;;1.97;;
4885;SDS011;2457;51.788;6.136;2022-10-16T02:47:23;3.57;;;1.40;;
4885;SDS011;2457;51.788;6.136;2022-10-16T02:49:50;4.30;;;1.47;;
4885;SDS011;2457;51.788;6.136;2022-10-16T02:52:17;7.30;;;1.73;;
4885;SDS011;2457;51.788;6.136;2022-10-16T02:54:45;4.97;;;1.50;;
4885;SDS011;2457;51.788;6.136;2022-10-16T02:57:12;3.53;;;1.30;;
4885;SDS011;2457;51.788;6.136;2022-10-16T02:59:39;4.43;;;1.63;;
4885;SDS011;2457;51.788;6.136;2022-10-16T03:02:07;4.87;;;1.70;;
4885;SDS011;2457;51.788;6.136;2022-10-16T03:04:34;5.97;;;1.67;;
4885;SDS011;2457;51.788;6.136;2022-10-16T03:07:01;7.00;;;1.90;;
4885;SDS011;2457;51.788;6.136;2022-10-16T03:09:29;7.87;;;1.97;;
4885;SDS011;2457;51.788;6.136;2022-10-16T03:11:56;4.40;;;1.40;;
4885;SDS011;2457;51.788;6.136;2022-10-16T03:14:23;9.57;;;1.60;;
4885;SDS011;2457;51.788;6.136;2022-10-16T03:16:51;5.60;;;1.90;;
4885;SDS011;2457;51.788;6.136;2022-10-16T03:19:18;5.47;;;2.00;;
4885;SDS011;2457;51.788;6.136;2022-10-16T03:21:45;6.17;;;1.43;;
4885;SDS011;2457;51.788;6.136;2022-10-16T03:24:13;5.43;;;1.63;;
4885;SDS011;2457;51.788;6.136;2022-10-16T03:26:40;4.00;;;1.60;;
4885;SDS011;2457;51.788;6.136;2022-10-16T03:29:07;4.80;;;1.57;;
4885;SDS011;2457;51.788;6.136;2022-10-16T03:31:34;3.80;;;1.70;;
4885;SDS011;2457;51.788;6.136;2022-10-16T03:34:02;3.80;;;1.50;;
4885;SDS011;2457;51.788;6.136;2022-10-16T03:36:29;3.80;;;1.50;;
4885;SDS011;2457;51.788;6.136;2022-10-16T03:38:56;3.80;;;1.53;;
4885;SDS011;2457;51.788;6.136;2022-10-16T03:41:24;5.00;;;1.67;;
4885;SDS011;2457;51.788;6.136;2022-10-16T03:43:51;6.80;;;1.67;;
4885;SDS011;2457;51.788;6.136;2022-10-16T03:46:18;4.73;;;1.70;;
4885;SDS011;2457;51.788;6.136;2022-10-16T03:48:45;3.77;;;1.60;;
4885;SDS011;2457;51.788;6.136;2022-10-16T03:51:13;4.60;;;1.67;;
4885;SDS011;2457;51.788;6.136;2022-10-16T03:53:40;3.97;;;1.70;;
4885;SDS011;2457;51.788;6.136;2022-10-16T03:56:07;3.90;;;1.40;;
4885;SDS011;2457;51.788;6.136;2022-10-16T03:58:34;4.03;;;1.60;;
4885;SDS011;2457;51.788;6.136;2022-10-16T04:01:02;4.07;;;1.60;;
4885;SDS011;2457;51.788;6.136;2022-10-16T04:03:29;3.70;;;1.43;;
4885;SDS011;2457;51.788;6.136;2022-10-16T04:05:56;3.67;;;1.30;;
4885;SDS011;2457;51.788;6.136;2022-10-16T04:08:24;3.97;;;1.53;;
4885;SDS011;2457;51.788;6.136;2022-10-16T04:10:51;3.80;;;1.37;;
4885;SDS011;2457;51.788;6.136;2022-10-16T04:13:18;4.20;;;1.50;;
4885;SDS011;2457;51.788;6.136;2022-10-16T04:15:46;4.47;;;1.50;;
4885;SDS011;2457;51.788;6.136;2022-10-16T04:18:13;4.67;;;1.50;;
4885;SDS011;2457;51.788;6.136;2022-10-16T04:20:40;4.07;;;1.70;;
4885;SDS011;2457;51.788;6.136;2022-10-16T04:23:08;6.37;;;1.60;;
4885;SDS011;2457;51.788;6.136;2022-10-16T04:25:35;3.30;;;1.10;;
4885;SDS011;2457;51.788;6.136;2022-10-16T04:28:02;5.37;;;1.50;;
4885;SDS011;2457;51.788;6.136;2022-10-16T04:30:30;3.47;;;1.20;;
4885;SDS011;2457;51.788;6.136;2022-10-16T04:32:57;5.63;;;1.40;;
4885;SDS011;2457;51.788;6.136;2022-10-16T04:35:24;5.53;;;1.50;;
4885;SDS011;2457;51.788;6.136;2022-10-16T04:37:52;3.90;;;1.20;;
4885;SDS011;2457;51.788;6.136;2022-10-16T04:40:19;4.60;;;1.70;;
4885;SDS011;2457;51.788;6.136;2022-10-16T04:42:46;4.23;;;1.40;;
4885;SDS011;2457;51.788;6.136;2022-10-16T04:45:13;3.60;;;1.30;;
4885;SDS011;2457;51.788;6.136;2022-10-16T04:47:41;3.87;;;1.40;;
4885;SDS011;2457;51.788;6.136;2022-10-16T04:50:08;4.40;;;1.53;;
4885;SDS011;2457;51.788;6.136;2022-10-16T04:52:35;7.90;;;1.40;;
4885;SDS011;2457;51.788;6.136;2022-10-16T04:55:03;3.87;;;1.43;;
4885;SDS011;2457;51.788;6.136;2022-10-16T04:57:30;3.80;;;1.37;;
4885;SDS011;2457;51.788;6.136;2022-10-16T04:59:59;4.80;;;1.60;;
4885;SDS011;2457;51.788;6.136;2022-10-16T05:02:26;4.10;;;1.50;;
4885;SDS011;2457;51.788;6.136;2022-10-16T05:04:54;5.57;;;1.37;;
4885;SDS011;2457;51.788;6.136;2022-10-16T05:07:21;4.47;;;1.57;;
4885;SDS011;2457;51.788;6.136;2022-10-16T05:09:48;3.90;;;1.43;;
4885;SDS011;2457;51.788;6.136;2022-10-16T05:12:15;3.77;;;1.30;;
4885;SDS011;2457;51.788;6.136;2022-10-16T05:14:43;7.10;;;1.47;;
4885;SDS011;2457;51.788;6.136;2022-10-16T05:17:10;5.33;;;1.30;;
4885;SDS011;2457;51.788;6.136;2022-10-16T05:19:37;4.63;;;1.47;;
4885;SDS011;2457;51.788;6.136;2022-10-16T05:22:05;10.13;;;1.60;;
4885;SDS011;2457;51.788;6.136;2022-10-16T05:24:32;4.37;;;1.50;;
4885;SDS011;2457;51.788;6.136;2022-10-16T05:26:59;6.13;;;1.30;;
4885;SDS011;2457;51.788;6.136;2022-10-16T05:29:26;4.60;;;1.63;;
4885;SDS011;2457;51.788;6.136;2022-10-16T05:31:54;6.70;;;1.60;;
4885;SDS011;2457;51.788;6.136;2022-10-16T05:34:21;4.37;;;1.50;;
4885;SDS011;2457;51.788;6.136;2022-10-16T05:36:49;4.63;;;1.40;;
4885;SDS011;2457;51.788;6.136;2022-10-16T05:39:16;3.80;;;1.50;;
4885;SDS011;2457;51.788;6.136;2022-10-16T05:41:43;3.40;;;1.20;;
4885;SDS011;2457;51.788;6.136;2022-10-16T05:44:11;5.00;;;1.40;;
4885;SDS011;2457;51.788;6.136;2022-10-16T05:46:38;4.57;;;1.43;;
4885;SDS011;2457;51.788;6.136;2022-10-16T05:49:05;5.10;;;1.50;;
4885;SDS011;2457;51.788;6.136;2022-10-16T05:51:32;4.57;;;1.60;;
4885;SDS011;2457;51.788;6.136;2022-10-16T05:54:00;4.03;;;1.30;;
4885;SDS011;2457;51.788;6.136;2022-10-16T05:56:27;4.97;;;1.33;;
4885;SDS011;2457;51.788;6.136;2022-10-16T05:58:54;5.40;;;1.53;;
4885;SDS011;2457;51.788;6.136;2022-10-16T06:01:22;4.20;;;1.50;;
4885;SDS011;2457;51.788;6.136;2022-10-16T06:03:50;7.83;;;1.60;;
4885;SDS011;2457;51.788;6.136;2022-10-16T06:06:18;4.63;;;1.30;;
4885;SDS011;2457;51.788;6.136;2022-10-16T06:08:47;3.87;;;1.20;;
4885;SDS011;2457;51.788;6.136;2022-10-16T06:11:15;4.73;;;1.67;;
4885;SDS011;2457;51.788;6.136;2022-10-16T06:13:43;4.53;;;1.70;;
4885;SDS011;2457;51.788;6.136;2022-10-16T06:16:12;6.00;;;1.43;;
4885;SDS011;2457;51.788;6.136;2022-10-16T06:18:39;4.70;;;1.63;;
4885;SDS011;2457;51.788;6.136;2022-10-16T06:21:16;4.37;;;1.60;;
4885;SDS011;2457;51.788;6.136;2022-10-16T06:23:38;4.20;;;1.30;;
4885;SDS011;2457;51.788;6.136;2022-10-16T06:26:06;4.40;;;1.17;;
4885;SDS011;2457;51.788;6.136;2022-10-16T06:28:34;6.10;;;1.70;;
4885;SDS011;2457;51.788;6.136;2022-10-16T06:31:02;4.20;;;1.43;;
4885;SDS011;2457;51.788;6.136;2022-10-16T06:33:29;3.77;;;1.50;;
4885;SDS011;2457;51.788;6.136;2022-10-16T06:36:00;6.17;;;2.10;;
4885;SDS011;2457;51.788;6.136;2022-10-16T06:38:29;4.20;;;1.70;;
4885;SDS011;2457;51.788;6.136;2022-10-16T06:40:56;3.83;;;1.30;;
4885;SDS011;2457;51.788;6.136;2022-10-16T06:43:24;4.70;;;1.60;;
4885;SDS011;2457;51.788;6.136;2022-10-16T06:45:56;5.10;;;1.60;;
4885;SDS011;2457;51.788;6.136;2022-10-16T06:48:20;8.60;;;1.70;;
4885;SDS011;2457;51.788;6.136;2022-10-16T06:53:26;4.10;;;1.40;;
4885;SDS011;2457;51.788;6.136;2022-10-16T06:55:53;4.30;;;1.40;;
4885;SDS011;2457;51.788;6.136;2022-10-16T06:58:20;4.23;;;1.40;;
4885;SDS011;2457;51.788;6.136;2022-10-16T07:00:48;3.90;;;1.50;;
4885;SDS011;2457;51.788;6.136;2022-10-16T07:03:15;4.53;;;1.60;;
4885;SDS011;2457;51.788;6.136;2022-10-16T07:05:42;4.47;;;1.57;;
4885;SDS011;2457;51.788;6.136;2022-10-16T07:08:10;7.33;;;1.70;;
4885;SDS011;2457;51.788;6.136;2022-10-16T07:10:37;5.80;;;1.57;;
4885;SDS011;2457;51.788;6.136;2022-10-16T07:13:04;3.83;;;1.40;;
4885;SDS011;2457;51.788;6.136;2022-10-16T07:15:33;5.20;;;1.53;;
4885;SDS011;2457;51.788;6.136;2022-10-16T07:18:01;3.97;;;1.40;;
4885;SDS011;2457;51.788;6.136;2022-10-16T07:20:28;6.87;;;1.50;;
4885;SDS011;2457;51.788;6.136;2022-10-16T07:22:55;4.10;;;1.60;;
4885;SDS011;2457;51.788;6.136;2022-10-16T07:25:22;7.43;;;1.93;;
4885;SDS011;2457;51.788;6.136;2022-10-16T07:27:50;5.93;;;1.40;;
4885;SDS011;2457;51.788;6.136;2022-10-16T07:30:17;4.37;;;1.53;;
4885;SDS011;2457;51.788;6.136;2022-10-16T07:32:44;4.50;;;1.80;;
4885;SDS011;2457;51.788;6.136;2022-10-16T07:35:11;4.40;;;1.50;;
4885;SDS011;2457;51.788;6.136;2022-10-16T07:37:39;8.73;;;1.70;;
4885;SDS011;2457;51.788;6.136;2022-10-16T07:40:06;4.50;;;1.63;;
4885;SDS011;2457;51.788;6.136;2022-10-16T07:42:34;6.67;;;1.50;;
4885;SDS011;2457;51.788;6.136;2022-10-16T07:45:01;5.33;;;1.60;;
4885;SDS011;2457;51.788;6.136;2022-10-16T07:47:28;5.90;;;1.80;;
4885;SDS011;2457;51.788;6.136;2022-10-16T07:49:55;4.57;;;1.70;;
4885;SDS011;2457;51.788;6.136;2022-10-16T07:52:23;7.33;;;2.37;;
4885;SDS011;2457;51.788;6.136;2022-10-16T07:54:50;7.93;;;3.20;;
4885;SDS011;2457;51.788;6.136;2022-10-16T07:57:17;8.97;;;3.90;;
4885;SDS011;2457;51.788;6.136;2022-10-16T07:59:46;9.40;;;4.30;;
4885;SDS011;2457;51.788;6.136;2022-10-16T08:02:13;8.63;;;4.30;;
4885;SDS011;2457;51.788;6.136;2022-10-16T08:04:40;12.63;;;5.83;;
4885;SDS011;2457;51.788;6.136;2022-10-16T08:07:08;13.90;;;5.97;;
4885;SDS011;2457;51.788;6.136;2022-10-16T08:09:35;20.77;;;10.70;;
4885;SDS011;2457;51.788;6.136;2022-10-16T08:12:02;28.60;;;11.70;;
4885;SDS011;2457;51.788;6.136;2022-10-16T08:14:30;32.10;;;14.27;;
4885;SDS011;2457;51.788;6.136;2022-10-16T08:16:57;29.50;;;14.23;;
4885;SDS011;2457;51.788;6.136;2022-10-16T08:19:25;31.57;;;15.50;;
4885;SDS011;2457;51.788;6.136;2022-10-16T08:21:52;36.57;;;14.37;;
4885;SDS011;2457;51.788;6.136;2022-10-16T08:24:19;22.13;;;12.80;;
4885;SDS011;2457;51.788;6.136;2022-10-16T08:26:46;24.10;;;11.93;;
4885;SDS011;2457;51.788;6.136;2022-10-16T08:29:14;18.33;;;9.53;;
4885;SDS011;2457;51.788;6.136;2022-10-16T08:31:41;15.20;;;8.63;;
4885;SDS011;2457;51.788;6.136;2022-10-16T08:34:08;18.10;;;10.30;;
4885;SDS011;2457;51.788;6.136;2022-10-16T08:36:36;19.20;;;8.63;;
4885;SDS011;2457;51.788;6.136;2022-10-16T08:39:04;12.13;;;6.33;;
4885;SDS011;2457;51.788;6.136;2022-10-16T08:47:06;11.90;;;3.90;;
4885;SDS011;2457;51.788;6.136;2022-10-16T08:49:31;6.37;;;3.20;;
4885;SDS011;2457;51.788;6.136;2022-10-16T08:51:58;13.30;;;4.47;;
4885;SDS011;2457;51.788;6.136;2022-10-16T08:54:29;9.40;;;4.20;;
4885;SDS011;2457;51.788;6.136;2022-10-16T08:57:04;7.17;;;3.77;;
4885;SDS011;2457;51.788;6.136;2022-10-16T08:59:28;7.80;;;3.60;;
4885;SDS011;2457;51.788;6.136;2022-10-16T09:01:56;8.73;;;3.40;;
4885;SDS011;2457;51.788;6.136;2022-10-16T09:07:02;8.07;;;4.00;;
4885;SDS011;2457;51.788;6.136;2022-10-16T09:09:43;9.07;;;4.60;;
4885;SDS011;2457;51.788;6.136;2022-10-16T09:17:32;7.00;;;3.23;;
4885;SDS011;2457;51.788;6.136;2022-10-16T09:20:12;6.30;;;2.97;;
4885;SDS011;2457;51.788;6.136;2022-10-16T09:22:36;7.90;;;2.90;;
4885;SDS011;2457;51.788;6.136;2022-10-16T09:25:10;8.83;;;2.90;;
4885;SDS011;2457;51.788;6.136;2022-10-16T09:27:32;5.80;;;1.73;;
4885;SDS011;2457;51.788;6.136;2022-10-16T09:30:01;7.33;;;2.23;;
4885;SDS011;2457;51.788;6.136;2022-10-16T09:32:28;4.90;;;1.90;;
4885;SDS011;2457;51.788;6.136;2022-10-16T09:34:56;4.90;;;1.67;;
4885;SDS011;2457;51.788;6.136;2022-10-16T09:37:23;4.57;;;1.57;;
4885;SDS011;2457;51.788;6.136;2022-10-16T09:39:52;5.40;;;1.60;;
4885;SDS011;2457;51.788;6.136;2022-10-16T09:42:20;5.47;;;1.80;;
4885;SDS011;2457;51.788;6.136;2022-10-16T09:44:49;6.43;;;1.90;;
4885;SDS011;2457;51.788;6.136;2022-10-16T09:47:18;4.57;;;1.47;;
4885;SDS011;2457;51.788;6.136;2022-10-16T09:49:53;4.47;;;1.30;;
4885;SDS011;2457;51.788;6.136;2022-10-16T09:52:21;9.03;;;1.40;;
4885;SDS011;2457;51.788;6.136;2022-10-16T09:54:54;9.77;;;2.00;;
4885;SDS011;2457;51.788;6.136;2022-10-16T09:57:17;6.73;;;1.53;;
4885;SDS011;2457;51.788;6.136;2022-10-16T09:59:46;6.30;;;1.70;;
4885;SDS011;2457;51.788;6.136;2022-10-16T10:02:14;5.20;;;1.70;;
4885;SDS011;2457;51.788;6.136;2022-10-16T10:04:44;4.70;;;1.20;;
4885;SDS011;2457;51.788;6.136;2022-10-16T10:07:18;5.93;;;1.33;;
4885;SDS011;2457;51.788;6.136;2022-10-16T10:09:46;4.40;;;1.30;;
4885;SDS011;2457;51.788;6.136;2022-10-16T10:12:24;5.97;;;1.73;;
4885;SDS011;2457;51.788;6.136;2022-10-16T10:14:51;8.07;;;1.60;;
4885;SDS011;2457;51.788;6.136;2022-10-16T10:17:20;4.90;;;1.20;;
4885;SDS011;2457;51.788;6.136;2022-10-16T10:19:49;4.70;;;1.30;;
4885;SDS011;2457;51.788;6.136;2022-10-16T10:22:29;6.47;;;1.60;;
4885;SDS011;2457;51.788;6.136;2022-10-16T10:35:44;5.17;;;1.90;;
4885;SDS011;2457;51.788;6.136;2022-10-16T10:45:52;12.07;;;2.03;;
4885;SDS011;2457;51.788;6.136;2022-10-16T10:51:12;8.10;;;2.10;;
4885;SDS011;2457;51.788;6.136;2022-10-16T10:56:12;5.93;;;1.50;;
4885;SDS011;2457;51.788;6.136;2022-10-16T10:58:44;10.77;;;1.90;;
4885;SDS011;2457;51.788;6.136;2022-10-16T11:01:09;4.70;;;1.70;;
4885;SDS011;2457;51.788;6.136;2022-10-16T11:03:53;8.53;;;1.30;;
4885;SDS011;2457;51.788;6.136;2022-10-16T11:06:26;9.47;;;2.10;;
4885;SDS011;2457;51.788;6.136;2022-10-16T11:08:53;10.17;;;1.43;;
4885;SDS011;2457;51.788;6.136;2022-10-16T11:11:32;9.90;;;1.63;;
4885;SDS011;2457;51.788;6.136;2022-10-16T11:14:00;10.73;;;1.93;;
4885;SDS011;2457;51.788;6.136;2022-10-16T11:16:28;11.13;;;1.90;;
4885;SDS011;2457;51.788;6.136;2022-10-16T11:19:05;7.10;;;1.83;;
4885;SDS011;2457;51.788;6.136;2022-10-16T11:21:34;8.20;;;2.23;;
4885;SDS011;2457;51.788;6.136;2022-10-16T11:24:05;8.70;;;2.03;;
4885;SDS011;2457;51.788;6.136;2022-10-16T11:26:31;4.10;;;1.33;;
4885;SDS011;2457;51.788;6.136;2022-10-16T11:28:58;6.93;;;2.00;;
4885;SDS011;2457;51.788;6.136;2022-10-16T11:31:37;8.63;;;2.20;;
4885;SDS011;2457;51.788;6.136;2022-10-16T11:36:36;6.80;;;1.53;;
4885;SDS011;2457;51.788;6.136;2022-10-16T11:39:11;5.77;;;1.53;;
4885;SDS011;2457;51.788;6.136;2022-10-16T11:44:27;4.90;;;1.30;;
4885;SDS011;2457;51.788;6.136;2022-10-16T11:46:57;4.50;;;1.60;;
4885;SDS011;2457;51.788;6.136;2022-10-16T11:49:22;5.63;;;1.40;;
4885;SDS011;2457;51.788;6.136;2022-10-16T11:51:54;12.30;;;2.00;;
4885;SDS011;2457;51.788;6.136;2022-10-16T11:54:39;8.43;;;1.70;;
4885;SDS011;2457;51.788;6.136;2022-10-16T11:57:12;6.43;;;1.40;;
4885;SDS011;2457;51.788;6.136;2022-10-16T11:59:41;10.10;;;1.60;;
4885;SDS011;2457;51.788;6.136;2022-10-16T12:04:49;5.30;;;1.50;;
4885;SDS011;2457;51.788;6.136;2022-10-16T12:07:19;5.83;;;1.47;;
4885;SDS011;2457;51.788;6.136;2022-10-16T12:09:46;5.80;;;1.37;;
4885;SDS011;2457;51.788;6.136;2022-10-16T12:15:01;9.37;;;1.77;;
4885;SDS011;2457;51.788;6.136;2022-10-16T12:19:58;6.33;;;1.60;;
4885;SDS011;2457;51.788;6.136;2022-10-16T12:22:27;8.83;;;1.20;;
4885;SDS011;2457;51.788;6.136;2022-10-16T12:24:55;9.03;;;1.30;;
4885;SDS011;2457;51.788;6.136;2022-10-16T12:27:33;4.70;;;1.33;;
4885;SDS011;2457;51.788;6.136;2022-10-16T12:30:01;13.23;;;1.67;;
4885;SDS011;2457;51.788;6.136;2022-10-16T12:32:33;4.80;;;1.30;;
4885;SDS011;2457;51.788;6.136;2022-10-16T12:35:01;11.23;;;1.63;;
4885;SDS011;2457;51.788;6.136;2022-10-16T12:37:35;6.40;;;1.93;;
4885;SDS011;2457;51.788;6.136;2022-10-16T12:40:14;9.00;;;1.50;;
4885;SDS011;2457;51.788;6.136;2022-10-16T12:42:42;8.20;;;1.67;;
4885;SDS011;2457;51.788;6.136;2022-10-16T12:45:26;7.00;;;1.63;;
4885;SDS011;2457;51.788;6.136;2022-10-16T12:47:51;8.10;;;1.97;;
4885;SDS011;2457;51.788;6.136;2022-10-16T12:52:58;15.17;;;2.40;;
4885;SDS011;2457;51.788;6.136;2022-10-16T12:55:25;7.30;;;1.67;;
4885;SDS011;2457;51.788;6.136;2022-10-16T13:00:45;6.80;;;1.77;;
4885;SDS011;2457;51.788;6.136;2022-10-16T13:03:21;9.90;;;1.70;;
4885;SDS011;2457;51.788;6.136;2022-10-16T13:16:22;6.60;;;1.57;;
4885;SDS011;2457;51.788;6.136;2022-10-16T13:18:54;5.83;;;1.50;;
4885;SDS011;2457;51.788;6.136;2022-10-16T13:24:08;6.70;;;1.53;;
4885;SDS011;2457;51.788;6.136;2022-10-16T13:26:44;6.57;;;1.47;;
4885;SDS011;2457;51.788;6.136;2022-10-16T13:29:09;6.20;;;1.70;;
4885;SDS011;2457;51.788;6.136;2022-10-16T13:31:38;6.20;;;1.00;;
4885;SDS011;2457;51.788;6.136;2022-10-16T13:34:06;7.43;;;1.50;;
4885;SDS011;2457;51.788;6.136;2022-10-16T13:36:45;4.67;;;1.30;;
4885;SDS011;2457;51.788;6.136;2022-10-16T13:39:13;5.70;;;1.13;;
4885;SDS011;2457;51.788;6.136;2022-10-16T13:41:41;4.80;;;1.50;;
4885;SDS011;2457;51.788;6.136;2022-10-16T13:44:11;5.20;;;1.50;;
4885;SDS011;2457;51.788;6.136;2022-10-16T13:46:37;5.83;;;1.33;;
4885;SDS011;2457;51.788;6.136;2022-10-16T13:49:05;7.37;;;1.40;;
4885;SDS011;2457;51.788;6.136;2022-10-16T13:51:32;5.87;;;1.40;;
4885;SDS011;2457;51.788;6.136;2022-10-16T13:54:00;14.77;;;1.70;;
4885;SDS011;2457;51.788;6.136;2022-10-16T13:56:28;8.80;;;1.80;;
4885;SDS011;2457;51.788;6.136;2022-10-16T14:01:28;5.47;;;1.30;;
4885;SDS011;2457;51.788;6.136;2022-10-16T14:04:03;7.97;;;1.37;;
4885;SDS011;2457;51.788;6.136;2022-10-16T14:06:31;10.57;;;2.37;;
4885;SDS011;2457;51.788;6.136;2022-10-16T14:09:00;16.40;;;2.10;;
4885;SDS011;2457;51.788;6.136;2022-10-16T14:11:28;6.23;;;1.70;;
4885;SDS011;2457;51.788;6.136;2022-10-16T14:13:56;4.80;;;1.93;;
4885;SDS011;2457;51.788;6.136;2022-10-16T14:16:25;6.53;;;1.70;;
4885;SDS011;2457;51.788;6.136;2022-10-16T14:18:59;9.97;;;1.50;;
4885;SDS011;2457;51.788;6.136;2022-10-16T14:21:24;8.40;;;1.60;;
4885;SDS011;2457;51.788;6.136;2022-10-16T14:23:53;7.73;;;1.30;;
4885;SDS011;2457;51.788;6.136;2022-10-16T14:26:22;5.40;;;1.30;;
4885;SDS011;2457;51.788;6.136;2022-10-16T14:29:01;7.83;;;1.50;;
4885;SDS011;2457;51.788;6.136;2022-10-16T14:31:25;5.20;;;1.57;;
4885;SDS011;2457;51.788;6.136;2022-10-16T14:33:53;6.40;;;1.67;;
4885;SDS011;2457;51.788;6.136;2022-10-16T14:36:20;5.47;;;1.13;;
4885;SDS011;2457;51.788;6.136;2022-10-16T14:38:55;6.43;;;1.30;;
4885;SDS011;2457;51.788;6.136;2022-10-16T14:41:20;5.90;;;1.70;;
4885;SDS011;2457;51.788;6.136;2022-10-16T14:43:50;7.20;;;1.50;;
4885;SDS011;2457;51.788;6.136;2022-10-16T14:46:19;5.73;;;1.83;;
4885;SDS011;2457;51.788;6.136;2022-10-16T14:48:47;7.13;;;1.77;;
4885;SDS011;2457;51.788;6.136;2022-10-16T14:51:16;4.60;;;1.10;;
4885;SDS011;2457;51.788;6.136;2022-10-16T14:53:44;5.23;;;1.67;;
4885;SDS011;2457;51.788;6.136;2022-10-16T14:56:15;5.17;;;1.30;;
4885;SDS011;2457;51.788;6.136;2022-10-16T14:58:43;7.70;;;1.40;;
4885;SDS011;2457;51.788;6.136;2022-10-16T15:01:10;6.20;;;1.70;;
4885;SDS011;2457;51.788;6.136;2022-10-16T15:03:37;5.10;;;1.30;;
4885;SDS011;2457;51.788;6.136;2022-10-16T15:06:09;7.20;;;1.43;;
4885;SDS011;2457;51.788;6.136;2022-10-16T15:08:33;6.60;;;1.50;;
4885;SDS011;2457;51.788;6.136;2022-10-16T15:11:01;5.40;;;1.43;;
4885;SDS011;2457;51.788;6.136;2022-10-16T15:13:28;4.23;;;1.20;;
4885;SDS011;2457;51.788;6.136;2022-10-16T15:15:55;9.33;;;1.80;;
4885;SDS011;2457;51.788;6.136;2022-10-16T15:18:23;8.17;;;1.90;;
4885;SDS011;2457;51.788;6.136;2022-10-16T15:20:51;4.60;;;1.37;;
4885;SDS011;2457;51.788;6.136;2022-10-16T15:23:19;6.00;;;1.70;;
4885;SDS011;2457;51.788;6.136;2022-10-16T15:25:48;6.17;;;1.70;;
4885;SDS011;2457;51.788;6.136;2022-10-16T15:28:16;6.00;;;1.20;;
4885;SDS011;2457;51.788;6.136;2022-10-16T15:30:44;5.10;;;1.63;;
4885;SDS011;2457;51.788;6.136;2022-10-16T15:33:13;6.30;;;1.37;;
4885;SDS011;2457;51.788;6.136;2022-10-16T15:35:40;5.53;;;1.50;;
4885;SDS011;2457;51.788;6.136;2022-10-16T15:38:11;9.20;;;1.60;;
4885;SDS011;2457;51.788;6.136;2022-10-16T15:40:40;6.67;;;1.50;;
4885;SDS011;2457;51.788;6.136;2022-10-16T15:43:07;4.47;;;1.10;;
4885;SDS011;2457;51.788;6.136;2022-10-16T15:45:35;7.40;;;1.27;;
4885;SDS011;2457;51.788;6.136;2022-10-16T15:48:02;8.17;;;1.30;;
4885;SDS011;2457;51.788;6.136;2022-10-16T15:50:30;6.83;;;1.63;;
4885;SDS011;2457;51.788;6.136;2022-10-16T15:52:58;5.13;;;1.33;;
4885;SDS011;2457;51.788;6.136;2022-10-16T15:55:25;6.10;;;1.63;;
4885;SDS011;2457;51.788;6.136;2022-10-16T15:57:52;6.27;;;1.50;;
4885;SDS011;2457;51.788;6.136;2022-10-16T16:00:20;5.13;;;1.53;;
4885;SDS011;2457;51.788;6.136;2022-10-16T16:02:52;7.67;;;1.50;;
4885;SDS011;2457;51.788;6.136;2022-10-16T16:05:20;5.37;;;1.73;;
4885;SDS011;2457;51.788;6.136;2022-10-16T16:07:48;9.00;;;1.80;;
4885;SDS011;2457;51.788;6.136;2022-10-16T16:10:15;6.93;;;1.47;;
4885;SDS011;2457;51.788;6.136;2022-10-16T16:12:43;6.30;;;1.47;;
4885;SDS011;2457;51.788;6.136;2022-10-16T16:15:13;7.13;;;1.70;;
4885;SDS011;2457;51.788;6.136;2022-10-16T16:17:40;4.67;;;1.40;;
4885;SDS011;2457;51.788;6.136;2022-10-16T16:20:08;5.17;;;1.60;;
4885;SDS011;2457;51.788;6.136;2022-10-16T16:22:35;7.10;;;2.13;;
4885;SDS011;2457;51.788;6.136;2022-10-16T16:25:03;9.57;;;1.90;;
4885;SDS011;2457;51.788;6.136;2022-10-16T16:27:30;6.83;;;1.80;;
4885;SDS011;2457;51.788;6.136;2022-10-16T16:30:00;4.77;;;1.27;;
4885;SDS011;2457;51.788;6.136;2022-10-16T16:32:29;4.07;;;1.40;;
4885;SDS011;2457;51.788;6.136;2022-10-16T16:34:58;6.23;;;1.53;;
4885;SDS011;2457;51.788;6.136;2022-10-16T16:37:25;4.53;;;1.53;;
4885;SDS011;2457;51.788;6.136;2022-10-16T16:39:55;9.77;;;1.63;;
4885;SDS011;2457;51.788;6.136;2022-10-16T16:42:28;5.30;;;1.43;;
4885;SDS011;2457;51.788;6.136;2022-10-16T16:44:52;4.97;;;1.50;;